This is the latest recevied weather packets stored in our database for station/object KG5TTF. If no packets are shown the sender has not sent any weather packets the latest 10 day(s).
| Time | Temp. | Humidity | Pressure | Rain* | Wind** | Luminosity | Snow |
|---|---|---|---|---|---|---|---|
| 1777949693 | 10° C | 59% | 1015.4 hPa | 0 mm | - | 0 W/m² | - |
| 1777949392 | 10° C | 59% | 1015.3 hPa | 0 mm | - | 0 W/m² | - |
| 1777949088 | 10° C | 59% | 1015.4 hPa | 0 mm | - | 0 W/m² | - |
| 1777948786 | 10° C | 60% | 1015.3 hPa | 0 mm | - | 0 W/m² | - |
| 1777948483 | 9.44° C | 61% | 1015.3 hPa | 0 mm | - | 0 W/m² | - |
| 1777948180 | 9.44° C | 62% | 1015.2 hPa | 0 mm | - | 0 W/m² | - |
| 1777947878 | 9.44° C | 62% | 1015.4 hPa | 0 mm | - | 0 W/m² | - |
| 1777947575 | 9.44° C | 62% | 1015.2 hPa | 0 mm | - | 0 W/m² | - |
| 1777947271 | 9.44° C | 62% | 1014.9 hPa | 0 mm | - | 0 W/m² | - |
| 1777946967 | 9.44° C | 62% | 1015.2 hPa | 0 mm | - | 0 W/m² | - |
| 1777946662 | 10° C | 62% | 1015.5 hPa | 0 mm | - | 1 W/m² | - |
| 1777946359 | 10° C | 60% | 1015.5 hPa | 0 mm | - | 1 W/m² | - |
| 1777946056 | 10.56° C | 59% | 1015.2 hPa | 0 mm | - | 2 W/m² | - |
| 1777945754 | 11.11° C | 57% | 1015.2 hPa | 0 mm | - | 3 W/m² | - |
| 1777945450 | 11.11° C | 54% | 1014.9 hPa | 0 mm | - | 4 W/m² | - |
| 1777945147 | 11.67° C | 51% | 1014.9 hPa | 0 mm | - | 4 W/m² | - |
| 1777944844 | 12.22° C | 47% | 1014.9 hPa | 0 mm | - | 4 W/m² | - |
| 1777944542 | 12.22° C | 46% | 1014.9 hPa | 0 mm | - | 6 W/m² | - |
| 1777944240 | 12.22° C | 45% | 1015.1 hPa | 0 mm | - | 7 W/m² | - |
| 1777943936 | 12.22° C | 45% | 1015.1 hPa | 0 mm | - | 7 W/m² | - |
| 1777943633 | 12.22° C | 45% | 1014.8 hPa | 0 mm | - | 11 W/m² | - |
| 1777943329 | 12.78° C | 45% | 1014.7 hPa | 0 mm | - | 17 W/m² | - |
| 1777943025 | 12.78° C | 44% | 1014.6 hPa | 0 mm | - | 20 W/m² | - |
| 1777942721 | 12.78° C | 43% | 1014.4 hPa | 0 mm | - | 26 W/m² | - |
| 1777942418 | 12.78° C | 43% | 1014.6 hPa | 0 mm | - | 27 W/m² | - |
* Rain latest hour (hover to see other rain measurements)
** Current wind speed in m/s (hover to see current wind gust speed)